Time,TemperatureF,DewpointF,PressureIn,WindDirection,WindDirectionDegrees,WindSpeedMPH,WindSpeedGustMPH,Humidity,HourlyPrecipIn,Conditions,Clouds,dailyrainin,SoftwareType,DateUTC
2013-03-10 00:00:00,36.7,35.9,29.79,South,182,1.0,1.0,97,0.00,,,0.00,Wunderground v.1.15,2013-03-10 06:00:00,
2013-03-10 00:05:00,36.7,35.9,29.79,South,182,0.0,1.0,97,0.00,,,0.00,Wunderground v.1.15,2013-03-10 06:05:00,
2013-03-10 00:10:00,36.8,36.0,29.79,SSW,196,0.0,0.0,97,0.00,,,0.00,Wunderground v.1.15,2013-03-10 06:10:00,
2013-03-10 00:15:00,36.8,36.0,29.79,South,169,1.0,1.0,97,0.00,,,0.00,Wunderground v.1.15,2013-03-10 06:15:00,
2013-03-10 00:20:00,36.8,36.0,29.79,SSE,165,0.0,0.0,97,0.00,,,0.00,Wunderground v.1.15,2013-03-10 06:20:00,
2013-03-10 00:25:00,36.8,36.0,29.78,South,190,1.0,1.0,97,0.00,,,0.01,Wunderground v.1.15,2013-03-10 06:25:00,
2013-03-10 00:30:00,36.8,36.0,29.78,SE,145,1.0,6.0,97,0.00,,,0.01,Wunderground v.1.15,2013-03-10 06:30:00,
2013-03-10 00:40:00,36.7,35.9,29.78,South,188,1.0,1.0,97,0.00,,,0.01,Wunderground v.1.15,2013-03-10 06:40:00,
2013-03-10 00:45:00,36.7,35.9,29.78,SSE,159,0.0,1.0,97,0.00,,,0.01,Wunderground v.1.15,2013-03-10 06:45:00,
2013-03-10 00:50:00,36.9,36.1,29.78,SSE,168,1.0,1.0,97,0.00,,,0.02,Wunderground v.1.15,2013-03-10 06:50:00,
2013-03-10 00:55:00,37.2,36.4,29.78,SSW,193,2.0,2.0,97,0.00,,,0.02,Wunderground v.1.15,2013-03-10 06:55:00,
2013-03-10 01:00:00,37.3,36.5,29.77,South,188,3.0,6.0,97,0.00,,,0.02,Wunderground v.1.15,2013-03-10 07:00:00,
2013-03-10 01:05:00,37.4,36.6,29.77,SE,144,2.0,6.0,97,0.00,,,0.02,Wunderground v.1.15,2013-03-10 07:05:00,
2013-03-10 01:10:00,37.4,36.6,29.78,South,182,2.0,2.0,97,0.00,,,0.02,Wunderground v.1.15,2013-03-10 07:10:00,
2013-03-10 01:15:00,37.7,36.9,29.78,South,179,3.0,3.0,97,0.00,,,0.02,Wunderground v.1.15,2013-03-10 07:15:00,
2013-03-10 01:20:00,38.0,37.2,29.78,South,182,3.0,3.0,97,0.00,,,0.02,Wunderground v.1.15,2013-03-10 07:20:00,
2013-03-10 01:25:00,38.2,37.4,29.78,SSW,194,4.0,4.0,97,0.00,,,0.02,Wunderground v.1.15,2013-03-10 07:25:00,
2013-03-10 01:35:00,38.2,37.2,29.77,SSW,199,2.0,8.0,96,0.00,,,0.03,Wunderground v.1.15,2013-03-10 07:35:00,
2013-03-10 01:40:00,38.4,37.4,29.78,SSE,167,3.0,3.0,96,0.00,,,0.03,Wunderground v.1.15,2013-03-10 07:40:00,
2013-03-10 01:45:00,38.5,37.5,29.77,South,175,4.0,6.0,96,0.00,,,0.03,Wunderground v.1.15,2013-03-10 07:45:00,
2013-03-10 01:50:00,38.6,37.6,29.77,South,185,4.0,4.0,96,0.00,,,0.03,Wunderground v.1.15,2013-03-10 07:50:00,
2013-03-10 01:55:00,38.6,37.6,29.77,SSE,165,4.0,4.0,96,0.00,,,0.04,Wunderground v.1.15,2013-03-10 07:55:00,
2013-03-10 03:00:00,38.6,37.6,29.76,SSW,205,4.0,6.0,96,0.00,,,0.04,Wunderground v.1.15,2013-03-10 08:00:00,
2013-03-10 04:30:00,38.3,37.5,29.73,SSE,151,1.0,1.0,97,0.05,,,0.10,Wunderground v.1.15,2013-03-10 09:30:00,
2013-03-10 04:35:00,38.3,37.5,29.74,South,178,2.0,2.0,97,0.05,,,0.11,Wunderground v.1.15,2013-03-10 09:35:00,
2013-03-10 04:45:00,38.7,37.9,29.74,South,190,2.0,4.0,97,0.17,,,0.13,Wunderground v.1.15,2013-03-10 09:45:00,
2013-03-10 04:50:00,38.8,38.0,29.73,South,184,2.0,2.0,97,0.11,,,0.13,Wunderground v.1.15,2013-03-10 09:50:00,
2013-03-10 04:55:00,38.9,38.1,29.73,SSE,161,3.0,6.0,97,0.11,,,0.14,Wunderground v.1.15,2013-03-10 09:55:00,
2013-03-10 05:00:00,39.0,38.2,29.73,SSW,192,3.0,3.0,97,0.07,,,0.15,Wunderground v.1.15,2013-03-10 10:00:00,
2013-03-10 05:05:00,39.1,38.3,29.73,SSW,198,3.0,5.0,97,0.07,,,0.15,Wunderground v.1.15,2013-03-10 10:05:00,
2013-03-10 05:10:00,39.1,38.3,29.73,SSW,199,3.0,3.0,97,0.07,,,0.16,Wunderground v.1.15,2013-03-10 10:10:00,
2013-03-10 05:15:00,39.1,38.3,29.73,SSW,204,2.0,6.0,97,0.11,,,0.17,Wunderground v.1.15,2013-03-10 10:15:00,
2013-03-10 05:20:00,39.3,38.8,29.73,SSW,201,2.0,2.0,98,0.10,,,0.18,Wunderground v.1.15,2013-03-10 10:20:00,
2013-03-10 05:30:00,39.4,38.9,29.74,SSW,192,2.0,2.0,98,0.12,,,0.20,Wunderground v.1.15,2013-03-10 10:30:00,
2013-03-10 05:35:00,39.3,38.8,29.74,SW,215,1.0,2.0,98,0.11,,,0.21,Wunderground v.1.15,2013-03-10 10:35:00,
2013-03-10 05:40:00,39.2,38.7,29.73,SW,214,0.0,0.0,98,0.08,,,0.21,Wunderground v.1.15,2013-03-10 10:40:00,
2013-03-10 05:45:00,39.0,38.2,29.74,SSW,205,0.0,4.0,97,0.14,,,0.23,Wunderground v.1.15,2013-03-10 10:45:00,
2013-03-10 05:50:00,39.0,38.2,29.74,SSW,192,1.0,1.0,97,0.11,,,0.24,Wunderground v.1.15,2013-03-10 10:50:00,
2013-03-10 05:55:00,38.9,38.1,29.74,South,191,1.0,2.0,97,0.11,,,0.24,Wunderground v.1.15,2013-03-10 10:55:00,
2013-03-10 06:00:00,38.8,38.3,29.74,SSW,202,1.0,1.0,98,0.09,,,0.25,Wunderground v.1.15,2013-03-10 11:00:00,
2013-03-10 06:05:00,38.7,37.9,29.74,SSW,198,1.0,1.0,97,0.08,,,0.26,Wunderground v.1.15,2013-03-10 11:05:00,
2013-03-10 06:10:00,38.6,37.8,29.73,SSW,213,1.0,1.0,97,0.08,,,0.26,Wunderground v.1.15,2013-03-10 11:10:00,
2013-03-10 06:15:00,38.6,38.1,29.73,SW,219,1.0,3.0,98,0.05,,,0.26,Wunderground v.1.15,2013-03-10 11:15:00,
2013-03-10 06:20:00,38.7,38.2,29.73,SSW,206,2.0,2.0,98,0.05,,,0.27,Wunderground v.1.15,2013-03-10 11:20:00,
2013-03-10 06:25:00,38.6,38.1,29.73,SSW,205,1.0,2.0,98,0.05,,,0.27,Wunderground v.1.15,2013-03-10 11:25:00,
2013-03-10 06:30:00,38.5,38.0,29.72,South,175,1.0,1.0,98,0.04,,,0.27,Wunderground v.1.15,2013-03-10 11:30:00,
2013-03-10 06:35:00,38.5,38.0,29.71,South,173,0.0,1.0,98,0.00,,,0.27,Wunderground v.1.15,2013-03-10 11:35:00,
2013-03-10 06:40:00,38.4,37.9,29.70,South,173,0.0,1.0,98,0.00,,,0.28,Wunderground v.1.15,2013-03-10 11:40:00,
2013-03-10 06:45:00,38.5,38.0,29.68,ESE,111,1.0,2.0,98,0.00,,,0.28,Wunderground v.1.15,2013-03-10 11:45:00,
2013-03-10 06:50:00,38.5,38.0,29.69,SE,145,2.0,5.0,98,0.00,,,0.28,Wunderground v.1.15,2013-03-10 11:50:00,
2013-03-10 06:55:00,38.8,38.3,29.70,SSE,161,2.0,5.0,98,0.00,,,0.28,Wunderground v.1.15,2013-03-10 11:55:00,
2013-03-10 07:00:00,39.0,38.5,29.68,SE,142,2.0,5.0,98,0.00,,,0.28,Wunderground v.1.15,2013-03-10 12:00:00,
2013-03-10 07:05:00,39.0,38.5,29.68,SSE,159,2.0,5.0,98,0.00,,,0.28,Wunderground v.1.15,2013-03-10 12:05:00,
2013-03-10 07:10:00,39.0,38.5,29.68,South,170,1.0,2.0,98,0.00,,,0.28,Wunderground v.1.15,2013-03-10 12:10:00,
2013-03-10 07:15:00,39.0,38.5,29.66,SE,146,1.0,5.0,98,0.00,,,0.28,Wunderground v.1.15,2013-03-10 12:15:00,
2013-03-10 07:20:00,39.2,38.7,29.66,SSW,192,3.0,3.0,98,0.00,,,0.28,Wunderground v.1.15,2013-03-10 12:20:00,
2013-03-10 07:25:00,39.3,38.8,29.72,West,267,3.0,4.0,98,0.00,,,0.28,Wunderground v.1.15,2013-03-10 12:25:00,
2013-03-10 07:30:00,39.0,38.5,29.75,West,279,3.0,3.0,98,0.00,,,0.28,Wunderground v.1.15,2013-03-10 12:30:00,
2013-03-10 07:35:00,38.9,38.4,29.75,West,278,2.0,3.0,98,0.00,,,0.28,Wunderground v.1.15,2013-03-10 12:35:00,
2013-03-10 07:40:00,39.0,38.5,29.77,West,267,2.0,5.0,98,0.00,,,0.28,Wunderground v.1.15,2013-03-10 12:40:00,
2013-03-10 07:45:00,39.0,38.5,29.75,SW,216,3.0,5.0,98,0.00,,,0.28,Wunderground v.1.15,2013-03-10 12:45:00,
2013-03-10 07:50:00,38.9,38.4,29.75,SW,214,1.0,3.0,98,0.00,,,0.28,Wunderground v.1.15,2013-03-10 12:50:00,
2013-03-10 07:55:00,38.7,38.2,29.75,SW,214,1.0,3.0,98,0.00,,,0.28,Wunderground v.1.15,2013-03-10 12:55:00,
2013-03-10 08:00:00,38.5,38.0,29.75,SW,214,0.0,0.0,98,0.00,,,0.28,Wunderground v.1.15,2013-03-10 13:00:00,
2013-03-10 08:10:00,38.3,37.8,29.75,SW,235,1.0,1.0,98,0.00,,,0.28,Wunderground v.1.15,2013-03-10 13:10:00,
2013-03-10 08:15:00,38.2,37.7,29.75,SW,233,1.0,1.0,98,0.00,,,0.28,Wunderground v.1.15,2013-03-10 13:15:00,
2013-03-10 08:20:00,38.2,37.7,29.77,SW,232,0.0,0.0,98,0.00,,,0.28,Wunderground v.1.15,2013-03-10 13:20:00,
2013-03-10 08:30:00,38.2,37.7,29.79,SSW,210,1.0,1.0,98,0.00,,,0.28,Wunderground v.1.15,2013-03-10 13:30:00,
2013-03-10 08:35:00,38.2,37.7,29.79,SW,225,1.0,1.0,98,0.00,,,0.28,Wunderground v.1.15,2013-03-10 13:35:00,
2013-03-10 08:40:00,38.2,37.7,29.79,SW,225,0.0,0.0,98,0.00,,,0.28,Wunderground v.1.15,2013-03-10 13:40:00,
2013-03-10 08:45:00,38.1,37.6,29.78,SW,225,0.0,0.0,98,0.00,,,0.28,Wunderground v.1.15,2013-03-10 13:45:00,
2013-03-10 08:50:00,38.1,37.6,29.78,SW,225,0.0,0.0,98,0.00,,,0.28,Wunderground v.1.15,2013-03-10 13:50:00,
2013-03-10 08:55:00,38.1,37.6,29.78,SW,225,0.0,0.0,98,0.00,,,0.28,Wunderground v.1.15,2013-03-10 13:55:00,
2013-03-10 09:00:00,38.0,37.5,29.78,SW,225,0.0,0.0,98,0.00,,,0.28,Wunderground v.1.15,2013-03-10 14:00:00,
2013-03-10 09:05:00,37.9,37.4,29.78,SW,225,0.0,0.0,98,0.00,,,0.28,Wunderground v.1.15,2013-03-10 14:05:00,
2013-03-10 09:10:00,37.9,37.4,29.78,SW,225,0.0,0.0,98,0.00,,,0.28,Wunderground v.1.15,2013-03-10 14:10:00,
2013-03-10 09:15:00,37.8,37.3,29.78,SW,225,0.0,0.0,98,0.00,,,0.28,Wunderground v.1.15,2013-03-10 14:15:00,
2013-03-10 09:20:00,37.7,37.2,29.78,SW,225,0.0,0.0,98,0.00,,,0.28,Wunderground v.1.15,2013-03-10 14:20:00,
2013-03-10 09:25:00,37.7,37.2,29.78,SW,225,0.0,0.0,98,0.00,,,0.28,Wunderground v.1.15,2013-03-10 14:25:00,
2013-03-10 09:35:00,37.8,37.3,29.78,SW,225,0.0,0.0,98,0.00,,,0.28,Wunderground v.1.15,2013-03-10 14:35:00,
2013-03-10 09:40:00,37.8,37.3,29.77,SW,225,0.0,0.0,98,0.00,,,0.28,Wunderground v.1.15,2013-03-10 14:40:00,
2013-03-10 09:45:00,37.8,37.3,29.76,SW,225,0.0,0.0,98,0.00,,,0.28,Wunderground v.1.15,2013-03-10 14:45:00,
2013-03-10 09:50:00,37.9,37.4,29.76,SW,225,0.0,0.0,98,0.00,,,0.28,Wunderground v.1.15,2013-03-10 14:50:00,
2013-03-10 09:55:00,38.2,37.9,29.75,SW,225,0.0,0.0,99,0.00,,,0.28,Wunderground v.1.15,2013-03-10 14:55:00,
2013-03-10 10:00:00,38.4,38.1,29.75,SW,225,0.0,0.0,99,0.00,,,0.28,Wunderground v.1.15,2013-03-10 15:00:00,
2013-03-10 10:05:00,38.7,38.4,29.76,SW,225,0.0,0.0,99,0.00,,,0.28,Wunderground v.1.15,2013-03-10 15:05:00,
2013-03-10 10:10:00,38.8,38.5,29.77,SW,225,0.0,0.0,99,0.00,,,0.28,Wunderground v.1.15,2013-03-10 15:10:00,
2013-03-10 10:15:00,38.9,38.6,29.77,SW,225,0.0,0.0,99,0.00,,,0.28,Wunderground v.1.15,2013-03-10 15:15:00,